sensor_id;sensor_type;location;lat;lon;timestamp;P1;durP1;ratioP1;P2;durP2;ratioP2
81229;SDS011;70701;44.452;18.652;2023-11-22T00:02:20;28.27;;;14.43;;
81229;SDS011;70701;44.452;18.652;2023-11-22T00:04:46;23.83;;;14.73;;
81229;SDS011;70701;44.452;18.652;2023-11-22T00:07:11;21.47;;;14.20;;
81229;SDS011;70701;44.452;18.652;2023-11-22T00:09:37;21.63;;;13.67;;
81229;SDS011;70701;44.452;18.652;2023-11-22T00:12:03;22.47;;;13.80;;
81229;SDS011;70701;44.452;18.652;2023-11-22T00:14:29;26.80;;;14.17;;
81229;SDS011;70701;44.452;18.652;2023-11-22T00:16:55;26.73;;;15.13;;
81229;SDS011;70701;44.452;18.652;2023-11-22T00:19:20;27.07;;;15.80;;
81229;SDS011;70701;44.452;18.652;2023-11-22T00:21:49;24.87;;;13.57;;
81229;SDS011;70701;44.452;18.652;2023-11-22T00:24:15;20.80;;;11.90;;
81229;SDS011;70701;44.452;18.652;2023-11-22T00:26:40;27.00;;;14.30;;
81229;SDS011;70701;44.452;18.652;2023-11-22T00:29:06;25.60;;;14.77;;
81229;SDS011;70701;44.452;18.652;2023-11-22T00:31:33;23.90;;;14.00;;
81229;SDS011;70701;44.452;18.652;2023-11-22T00:33:59;25.03;;;14.83;;
81229;SDS011;70701;44.452;18.652;2023-11-22T00:36:25;21.50;;;14.07;;
81229;SDS011;70701;44.452;18.652;2023-11-22T00:38:51;21.77;;;13.40;;
81229;SDS011;70701;44.452;18.652;2023-11-22T00:41:16;19.67;;;12.00;;
81229;SDS011;70701;44.452;18.652;2023-11-22T00:43:42;20.50;;;12.33;;
81229;SDS011;70701;44.452;18.652;2023-11-22T00:46:08;19.43;;;12.83;;
81229;SDS011;70701;44.452;18.652;2023-11-22T00:48:33;18.57;;;12.30;;
81229;SDS011;70701;44.452;18.652;2023-11-22T00:50:59;18.00;;;11.10;;
81229;SDS011;70701;44.452;18.652;2023-11-22T00:53:25;20.53;;;12.57;;
81229;SDS011;70701;44.452;18.652;2023-11-22T00:55:50;20.77;;;12.57;;
81229;SDS011;70701;44.452;18.652;2023-11-22T00:58:16;21.97;;;13.83;;
81229;SDS011;70701;44.452;18.652;2023-11-22T01:00:42;21.67;;;12.67;;
81229;SDS011;70701;44.452;18.652;2023-11-22T01:03:08;16.83;;;10.57;;
81229;SDS011;70701;44.452;18.652;2023-11-22T01:05:37;15.47;;;10.13;;
81229;SDS011;70701;44.452;18.652;2023-11-22T01:08:02;26.80;;;13.23;;
81229;SDS011;70701;44.452;18.652;2023-11-22T01:10:28;36.33;;;14.17;;
81229;SDS011;70701;44.452;18.652;2023-11-22T01:12:55;54.80;;;22.50;;
81229;SDS011;70701;44.452;18.652;2023-11-22T01:15:22;77.43;;;25.87;;
81229;SDS011;70701;44.452;18.652;2023-11-22T01:17:48;59.00;;;20.97;;
81229;SDS011;70701;44.452;18.652;2023-11-22T01:20:14;44.80;;;20.53;;
81229;SDS011;70701;44.452;18.652;2023-11-22T01:22:40;32.93;;;14.87;;
81229;SDS011;70701;44.452;18.652;2023-11-22T01:25:07;20.57;;;12.63;;
81229;SDS011;70701;44.452;18.652;2023-11-22T01:27:58;22.07;;;12.27;;
81229;SDS011;70701;44.452;18.652;2023-11-22T01:30:24;22.37;;;12.27;;
81229;SDS011;70701;44.452;18.652;2023-11-22T01:32:50;20.30;;;12.90;;
81229;SDS011;70701;44.452;18.652;2023-11-22T01:35:15;17.20;;;12.17;;
81229;SDS011;70701;44.452;18.652;2023-11-22T01:37:41;20.73;;;11.70;;
81229;SDS011;70701;44.452;18.652;2023-11-22T01:40:07;20.27;;;11.10;;
81229;SDS011;70701;44.452;18.652;2023-11-22T01:42:33;23.10;;;12.43;;
81229;SDS011;70701;44.452;18.652;2023-11-22T01:45:02;18.50;;;11.50;;
81229;SDS011;70701;44.452;18.652;2023-11-22T01:47:30;20.40;;;10.97;;
81229;SDS011;70701;44.452;18.652;2023-11-22T01:49:56;19.70;;;10.87;;
81229;SDS011;70701;44.452;18.652;2023-11-22T01:52:22;19.83;;;11.27;;
81229;SDS011;70701;44.452;18.652;2023-11-22T01:54:48;20.97;;;10.90;;
81229;SDS011;70701;44.452;18.652;2023-11-22T01:57:14;21.57;;;12.13;;
81229;SDS011;70701;44.452;18.652;2023-11-22T01:59:40;20.13;;;12.87;;
81229;SDS011;70701;44.452;18.652;2023-11-22T02:02:08;25.43;;;12.70;;
81229;SDS011;70701;44.452;18.652;2023-11-22T02:04:34;25.97;;;13.57;;
81229;SDS011;70701;44.452;18.652;2023-11-22T02:07:02;23.43;;;13.80;;
81229;SDS011;70701;44.452;18.652;2023-11-22T02:09:28;24.83;;;12.20;;
81229;SDS011;70701;44.452;18.652;2023-11-22T02:11:54;23.43;;;11.80;;
81229;SDS011;70701;44.452;18.652;2023-11-22T02:14:19;21.33;;;10.73;;
81229;SDS011;70701;44.452;18.652;2023-11-22T02:16:46;17.87;;;10.13;;
81229;SDS011;70701;44.452;18.652;2023-11-22T02:19:15;18.60;;;11.07;;
81229;SDS011;70701;44.452;18.652;2023-11-22T02:21:42;19.73;;;9.97;;
81229;SDS011;70701;44.452;18.652;2023-11-22T02:24:08;18.63;;;10.57;;
81229;SDS011;70701;44.452;18.652;2023-11-22T02:26:34;15.10;;;9.70;;
81229;SDS011;70701;44.452;18.652;2023-11-22T02:28:59;15.60;;;9.97;;
81229;SDS011;70701;44.452;18.652;2023-11-22T02:31:25;16.97;;;9.97;;
81229;SDS011;70701;44.452;18.652;2023-11-22T02:33:53;17.23;;;9.30;;
81229;SDS011;70701;44.452;18.652;2023-11-22T02:36:20;14.80;;;8.50;;
81229;SDS011;70701;44.452;18.652;2023-11-22T02:38:47;18.43;;;9.47;;
81229;SDS011;70701;44.452;18.652;2023-11-22T02:41:13;14.60;;;8.77;;
81229;SDS011;70701;44.452;18.652;2023-11-22T02:43:38;13.70;;;7.77;;
81229;SDS011;70701;44.452;18.652;2023-11-22T02:46:06;14.07;;;8.27;;
81229;SDS011;70701;44.452;18.652;2023-11-22T02:48:33;15.37;;;8.63;;
81229;SDS011;70701;44.452;18.652;2023-11-22T02:50:59;14.30;;;9.43;;
81229;SDS011;70701;44.452;18.652;2023-11-22T02:53:25;14.17;;;9.63;;
81229;SDS011;70701;44.452;18.652;2023-11-22T02:55:52;16.63;;;10.50;;
81229;SDS011;70701;44.452;18.652;2023-11-22T02:58:21;16.10;;;10.13;;
81229;SDS011;70701;44.452;18.652;2023-11-22T03:00:47;17.73;;;8.90;;
81229;SDS011;70701;44.452;18.652;2023-11-22T03:03:13;11.47;;;7.50;;
81229;SDS011;70701;44.452;18.652;2023-11-22T03:05:38;12.47;;;8.60;;
81229;SDS011;70701;44.452;18.652;2023-11-22T03:08:05;11.23;;;7.33;;
81229;SDS011;70701;44.452;18.652;2023-11-22T03:10:33;9.53;;;6.83;;
81229;SDS011;70701;44.452;18.652;2023-11-22T03:12:58;10.33;;;7.23;;
81229;SDS011;70701;44.452;18.652;2023-11-22T03:15:25;10.57;;;7.43;;
81229;SDS011;70701;44.452;18.652;2023-11-22T03:17:52;10.33;;;7.50;;
81229;SDS011;70701;44.452;18.652;2023-11-22T03:20:17;10.87;;;7.33;;
81229;SDS011;70701;44.452;18.652;2023-11-22T03:22:44;14.13;;;8.37;;
81229;SDS011;70701;44.452;18.652;2023-11-22T03:25:10;11.47;;;8.53;;
81229;SDS011;70701;44.452;18.652;2023-11-22T03:27:36;12.77;;;7.43;;
81229;SDS011;70701;44.452;18.652;2023-11-22T03:30:03;11.73;;;7.50;;
81229;SDS011;70701;44.452;18.652;2023-11-22T03:32:29;11.57;;;7.70;;
81229;SDS011;70701;44.452;18.652;2023-11-22T03:34:55;12.90;;;7.87;;
81229;SDS011;70701;44.452;18.652;2023-11-22T03:37:22;13.20;;;8.00;;
81229;SDS011;70701;44.452;18.652;2023-11-22T03:39:49;12.50;;;8.67;;
81229;SDS011;70701;44.452;18.652;2023-11-22T03:42:15;17.60;;;11.67;;
81229;SDS011;70701;44.452;18.652;2023-11-22T03:44:44;33.23;;;22.30;;
81229;SDS011;70701;44.452;18.652;2023-11-22T03:47:10;100.50;;;46.17;;
81229;SDS011;70701;44.452;18.652;2023-11-22T03:49:37;148.10;;;54.37;;
81229;SDS011;70701;44.452;18.652;2023-11-22T03:52:03;160.13;;;56.87;;
81229;SDS011;70701;44.452;18.652;2023-11-22T03:54:29;187.40;;;60.47;;
81229;SDS011;70701;44.452;18.652;2023-11-22T03:56:54;171.43;;;57.63;;
81229;SDS011;70701;44.452;18.652;2023-11-22T03:59:20;137.30;;;46.53;;
81229;SDS011;70701;44.452;18.652;2023-11-22T04:01:46;68.03;;;26.97;;
81229;SDS011;70701;44.452;18.652;2023-11-22T04:04:11;62.93;;;24.77;;
81229;SDS011;70701;44.452;18.652;2023-11-22T04:06:37;50.67;;;22.80;;
81229;SDS011;70701;44.452;18.652;2023-11-22T04:09:02;46.60;;;21.37;;
81229;SDS011;70701;44.452;18.652;2023-11-22T04:11:29;39.67;;;20.33;;
81229;SDS011;70701;44.452;18.652;2023-11-22T04:13:55;38.77;;;20.67;;
81229;SDS011;70701;44.452;18.652;2023-11-22T04:16:21;38.87;;;19.60;;
81229;SDS011;70701;44.452;18.652;2023-11-22T04:18:47;42.40;;;21.60;;
81229;SDS011;70701;44.452;18.652;2023-11-22T04:21:12;38.43;;;21.70;;
81229;SDS011;70701;44.452;18.652;2023-11-22T04:23:38;44.90;;;22.83;;
81229;SDS011;70701;44.452;18.652;2023-11-22T04:26:03;42.77;;;22.73;;
81229;SDS011;70701;44.452;18.652;2023-11-22T04:28:32;41.07;;;20.83;;
81229;SDS011;70701;44.452;18.652;2023-11-22T04:30:59;46.93;;;25.43;;
81229;SDS011;70701;44.452;18.652;2023-11-22T04:33:24;40.17;;;23.37;;
81229;SDS011;70701;44.452;18.652;2023-11-22T04:35:53;37.47;;;22.17;;
81229;SDS011;70701;44.452;18.652;2023-11-22T04:38:18;33.33;;;20.10;;
81229;SDS011;70701;44.452;18.652;2023-11-22T04:40:44;34.00;;;18.87;;
81229;SDS011;70701;44.452;18.652;2023-11-22T04:43:10;40.50;;;26.33;;
81229;SDS011;70701;44.452;18.652;2023-11-22T04:45:36;36.00;;;24.07;;
81229;SDS011;70701;44.452;18.652;2023-11-22T04:48:02;34.50;;;21.43;;
81229;SDS011;70701;44.452;18.652;2023-11-22T04:50:29;42.07;;;24.00;;
81229;SDS011;70701;44.452;18.652;2023-11-22T04:52:55;39.40;;;21.57;;
81229;SDS011;70701;44.452;18.652;2023-11-22T04:55:22;38.23;;;20.97;;
81229;SDS011;70701;44.452;18.652;2023-11-22T04:57:48;41.60;;;23.63;;
81229;SDS011;70701;44.452;18.652;2023-11-22T05:00:14;39.53;;;22.27;;
81229;SDS011;70701;44.452;18.652;2023-11-22T05:02:40;38.13;;;22.23;;
81229;SDS011;70701;44.452;18.652;2023-11-22T05:05:07;39.63;;;23.03;;
81229;SDS011;70701;44.452;18.652;2023-11-22T05:07:36;39.07;;;23.20;;
81229;SDS011;70701;44.452;18.652;2023-11-22T05:10:02;43.10;;;24.97;;
81229;SDS011;70701;44.452;18.652;2023-11-22T05:12:29;42.70;;;27.37;;
81229;SDS011;70701;44.452;18.652;2023-11-22T05:14:55;47.57;;;28.23;;
81229;SDS011;70701;44.452;18.652;2023-11-22T05:17:20;49.07;;;29.13;;
81229;SDS011;70701;44.452;18.652;2023-11-22T05:19:46;49.87;;;27.00;;
81229;SDS011;70701;44.452;18.652;2023-11-22T05:22:12;53.73;;;29.53;;
81229;SDS011;70701;44.452;18.652;2023-11-22T05:24:37;63.63;;;30.67;;
81229;SDS011;70701;44.452;18.652;2023-11-22T05:27:08;57.93;;;30.87;;
81229;SDS011;70701;44.452;18.652;2023-11-22T05:29:34;62.13;;;31.23;;
81229;SDS011;70701;44.452;18.652;2023-11-22T05:32:01;63.47;;;30.23;;
81229;SDS011;70701;44.452;18.652;2023-11-22T05:34:27;63.47;;;30.70;;
81229;SDS011;70701;44.452;18.652;2023-11-22T05:36:53;81.83;;;37.10;;
81229;SDS011;70701;44.452;18.652;2023-11-22T05:39:19;109.07;;;51.57;;
81229;SDS011;70701;44.452;18.652;2023-11-22T05:41:47;91.40;;;44.77;;
81229;SDS011;70701;44.452;18.652;2023-11-22T05:44:14;69.20;;;35.77;;
81229;SDS011;70701;44.452;18.652;2023-11-22T05:46:39;72.20;;;36.90;;
81229;SDS011;70701;44.452;18.652;2023-11-22T05:49:05;65.00;;;36.13;;
81229;SDS011;70701;44.452;18.652;2023-11-22T05:51:31;65.40;;;39.67;;
81229;SDS011;70701;44.452;18.652;2023-11-22T05:53:57;70.63;;;41.73;;
81229;SDS011;70701;44.452;18.652;2023-11-22T05:56:23;63.13;;;37.13;;
81229;SDS011;70701;44.452;18.652;2023-11-22T05:58:49;53.47;;;28.83;;
81229;SDS011;70701;44.452;18.652;2023-11-22T06:01:14;51.37;;;28.23;;
81229;SDS011;70701;44.452;18.652;2023-11-22T06:03:40;52.47;;;30.63;;
81229;SDS011;70701;44.452;18.652;2023-11-22T06:06:06;54.27;;;28.97;;
81229;SDS011;70701;44.452;18.652;2023-11-22T06:08:32;43.37;;;26.33;;
81229;SDS011;70701;44.452;18.652;2023-11-22T06:10:58;57.70;;;29.33;;
81229;SDS011;70701;44.452;18.652;2023-11-22T06:13:25;68.00;;;35.13;;
81229;SDS011;70701;44.452;18.652;2023-11-22T06:15:51;77.13;;;34.83;;
81229;SDS011;70701;44.452;18.652;2023-11-22T06:18:17;104.57;;;44.80;;
81229;SDS011;70701;44.452;18.652;2023-11-22T06:20:44;96.07;;;43.80;;
81229;SDS011;70701;44.452;18.652;2023-11-22T06:23:10;99.77;;;43.70;;
81229;SDS011;70701;44.452;18.652;2023-11-22T06:25:36;111.20;;;46.77;;
81229;SDS011;70701;44.452;18.652;2023-11-22T06:28:02;93.37;;;42.30;;
81229;SDS011;70701;44.452;18.652;2023-11-22T06:30:28;75.67;;;39.73;;
81229;SDS011;70701;44.452;18.652;2023-11-22T06:32:55;101.17;;;51.50;;
81229;SDS011;70701;44.452;18.652;2023-11-22T06:35:21;105.03;;;53.07;;
81229;SDS011;70701;44.452;18.652;2023-11-22T06:37:47;95.10;;;49.53;;
81229;SDS011;70701;44.452;18.652;2023-11-22T06:40:13;66.80;;;37.63;;
81229;SDS011;70701;44.452;18.652;2023-11-22T06:42:39;102.30;;;53.37;;
81229;SDS011;70701;44.452;18.652;2023-11-22T06:45:07;98.97;;;54.03;;
81229;SDS011;70701;44.452;18.652;2023-11-22T06:47:36;115.93;;;61.70;;
81229;SDS011;70701;44.452;18.652;2023-11-22T06:50:02;147.50;;;82.63;;
81229;SDS011;70701;44.452;18.652;2023-11-22T06:52:37;88.73;;;52.60;;
81229;SDS011;70701;44.452;18.652;2023-11-22T06:55:07;77.97;;;44.73;;
81229;SDS011;70701;44.452;18.652;2023-11-22T06:57:34;74.70;;;43.00;;
81229;SDS011;70701;44.452;18.652;2023-11-22T07:00:05;80.60;;;48.97;;
81229;SDS011;70701;44.452;18.652;2023-11-22T07:02:34;70.93;;;36.63;;
81229;SDS011;70701;44.452;18.652;2023-11-22T07:05:01;76.00;;;43.60;;
81229;SDS011;70701;44.452;18.652;2023-11-22T07:07:34;67.80;;;41.17;;
81229;SDS011;70701;44.452;18.652;2023-11-22T07:10:01;70.40;;;37.20;;
81229;SDS011;70701;44.452;18.652;2023-11-22T07:12:27;76.17;;;42.47;;
81229;SDS011;70701;44.452;18.652;2023-11-22T07:14:53;75.87;;;44.50;;
81229;SDS011;70701;44.452;18.652;2023-11-22T07:17:18;71.03;;;38.60;;
81229;SDS011;70701;44.452;18.652;2023-11-22T07:19:44;56.10;;;37.00;;
81229;SDS011;70701;44.452;18.652;2023-11-22T07:22:16;58.83;;;34.73;;
81229;SDS011;70701;44.452;18.652;2023-11-22T07:24:43;54.33;;;31.60;;
81229;SDS011;70701;44.452;18.652;2023-11-22T07:27:12;62.50;;;35.93;;
81229;SDS011;70701;44.452;18.652;2023-11-22T07:29:41;58.47;;;36.97;;
81229;SDS011;70701;44.452;18.652;2023-11-22T07:32:08;70.13;;;42.17;;
81229;SDS011;70701;44.452;18.652;2023-11-22T07:34:34;79.00;;;46.30;;
81229;SDS011;70701;44.452;18.652;2023-11-22T07:37:01;75.07;;;45.60;;
81229;SDS011;70701;44.452;18.652;2023-11-22T07:39:27;72.40;;;46.70;;
81229;SDS011;70701;44.452;18.652;2023-11-22T07:41:54;55.90;;;35.13;;
81229;SDS011;70701;44.452;18.652;2023-11-22T07:44:20;60.20;;;37.57;;
81229;SDS011;70701;44.452;18.652;2023-11-22T07:46:47;54.07;;;33.60;;
81229;SDS011;70701;44.452;18.652;2023-11-22T07:49:12;47.40;;;32.77;;
81229;SDS011;70701;44.452;18.652;2023-11-22T07:51:41;47.50;;;29.00;;
81229;SDS011;70701;44.452;18.652;2023-11-22T07:54:09;46.60;;;27.80;;
81229;SDS011;70701;44.452;18.652;2023-11-22T07:56:34;41.90;;;24.73;;
81229;SDS011;70701;44.452;18.652;2023-11-22T07:59:00;44.27;;;25.13;;
81229;SDS011;70701;44.452;18.652;2023-11-22T08:01:26;45.77;;;26.27;;
81229;SDS011;70701;44.452;18.652;2023-11-22T08:03:55;44.20;;;26.87;;
81229;SDS011;70701;44.452;18.652;2023-11-22T08:06:21;39.70;;;26.63;;
81229;SDS011;70701;44.452;18.652;2023-11-22T08:08:47;43.57;;;28.23;;
81229;SDS011;70701;44.452;18.652;2023-11-22T08:11:13;42.83;;;28.23;;
81229;SDS011;70701;44.452;18.652;2023-11-22T08:13:43;40.13;;;26.50;;
81229;SDS011;70701;44.452;18.652;2023-11-22T08:16:10;38.87;;;24.83;;
81229;SDS011;70701;44.452;18.652;2023-11-22T08:18:38;41.90;;;27.53;;
81229;SDS011;70701;44.452;18.652;2023-11-22T08:21:05;56.70;;;34.47;;
81229;SDS011;70701;44.452;18.652;2023-11-22T08:23:31;103.30;;;55.70;;
81229;SDS011;70701;44.452;18.652;2023-11-22T08:25:58;100.93;;;55.33;;
81229;SDS011;70701;44.452;18.652;2023-11-22T08:28:24;68.97;;;40.83;;
81229;SDS011;70701;44.452;18.652;2023-11-22T08:30:51;59.77;;;38.63;;
81229;SDS011;70701;44.452;18.652;2023-11-22T08:33:17;46.53;;;32.23;;
81229;SDS011;70701;44.452;18.652;2023-11-22T08:35:42;52.47;;;33.77;;
81229;SDS011;70701;44.452;18.652;2023-11-22T08:38:09;46.47;;;31.73;;
81229;SDS011;70701;44.452;18.652;2023-11-22T08:40:35;39.47;;;27.17;;
81229;SDS011;70701;44.452;18.652;2023-11-22T08:43:03;42.87;;;26.50;;
81229;SDS011;70701;44.452;18.652;2023-11-22T08:45:29;54.27;;;32.70;;
81229;SDS011;70701;44.452;18.652;2023-11-22T08:47:56;52.83;;;32.43;;
81229;SDS011;70701;44.452;18.652;2023-11-22T08:50:24;56.97;;;33.60;;
81229;SDS011;70701;44.452;18.652;2023-11-22T08:52:49;56.40;;;35.73;;
81229;SDS011;70701;44.452;18.652;2023-11-22T08:55:21;62.13;;;38.00;;
81229;SDS011;70701;44.452;18.652;2023-11-22T08:57:47;54.20;;;32.47;;
81229;SDS011;70701;44.452;18.652;2023-11-22T09:00:16;58.40;;;36.73;;
81229;SDS011;70701;44.452;18.652;2023-11-22T09:02:48;62.47;;;35.17;;
81229;SDS011;70701;44.452;18.652;2023-11-22T09:05:14;67.23;;;38.43;;
81229;SDS011;70701;44.452;18.652;2023-11-22T09:07:45;80.40;;;44.97;;
81229;SDS011;70701;44.452;18.652;2023-11-22T09:10:12;56.83;;;34.70;;
81229;SDS011;70701;44.452;18.652;2023-11-22T09:12:41;62.97;;;35.17;;
81229;SDS011;70701;44.452;18.652;2023-11-22T09:15:12;47.20;;;30.23;;
81229;SDS011;70701;44.452;18.652;2023-11-22T09:17:41;52.23;;;31.93;;
81229;SDS011;70701;44.452;18.652;2023-11-22T09:20:14;42.33;;;25.50;;
81229;SDS011;70701;44.452;18.652;2023-11-22T09:22:43;42.67;;;27.67;;
81229;SDS011;70701;44.452;18.652;2023-11-22T09:25:16;44.87;;;30.33;;
81229;SDS011;70701;44.452;18.652;2023-11-22T09:27:45;46.53;;;31.47;;
81229;SDS011;70701;44.452;18.652;2023-11-22T09:30:15;42.97;;;29.73;;
81229;SDS011;70701;44.452;18.652;2023-11-22T09:33:18;36.30;;;26.17;;
81229;SDS011;70701;44.452;18.652;2023-11-22T09:35:44;32.37;;;22.47;;
81229;SDS011;70701;44.452;18.652;2023-11-22T09:38:12;37.07;;;23.83;;
81229;SDS011;70701;44.452;18.652;2023-11-22T09:43:04;37.70;;;20.50;;
81229;SDS011;70701;44.452;18.652;2023-11-22T09:45:31;34.93;;;21.50;;
81229;SDS011;70701;44.452;18.652;2023-11-22T09:47:57;22.63;;;15.50;;
81229;SDS011;70701;44.452;18.652;2023-11-22T09:52:49;21.00;;;13.40;;
81229;SDS011;70701;44.452;18.652;2023-11-22T09:55:17;18.73;;;13.10;;
81229;SDS011;70701;44.452;18.652;2023-11-22T09:57:45;14.63;;;10.30;;
81229;SDS011;70701;44.452;18.652;2023-11-22T10:00:11;15.97;;;10.30;;
81229;SDS011;70701;44.452;18.652;2023-11-22T10:02:39;18.07;;;11.27;;
81229;SDS011;70701;44.452;18.652;2023-11-22T10:05:06;23.93;;;14.53;;
81229;SDS011;70701;44.452;18.652;2023-11-22T10:07:34;21.80;;;15.53;;
81229;SDS011;70701;44.452;18.652;2023-11-22T10:10:01;17.97;;;12.80;;
81229;SDS011;70701;44.452;18.652;2023-11-22T10:12:30;19.60;;;12.70;;
81229;SDS011;70701;44.452;18.652;2023-11-22T10:15:10;19.03;;;12.23;;
81229;SDS011;70701;44.452;18.652;2023-11-22T10:17:39;20.43;;;13.10;;
81229;SDS011;70701;44.452;18.652;2023-11-22T10:20:06;21.40;;;14.73;;
81229;SDS011;70701;44.452;18.652;2023-11-22T10:22:46;21.03;;;16.20;;
81229;SDS011;70701;44.452;18.652;2023-11-22T10:25:15;18.97;;;12.53;;
81229;SDS011;70701;44.452;18.652;2023-11-22T10:27:44;19.67;;;13.50;;
81229;SDS011;70701;44.452;18.652;2023-11-22T10:30:13;23.77;;;16.30;;
81229;SDS011;70701;44.452;18.652;2023-11-22T10:32:41;23.30;;;14.13;;
81229;SDS011;70701;44.452;18.652;2023-11-22T10:35:07;26.00;;;17.03;;
81229;SDS011;70701;44.452;18.652;2023-11-22T10:37:33;33.13;;;19.97;;
81229;SDS011;70701;44.452;18.652;2023-11-22T10:40:00;29.37;;;18.37;;
81229;SDS011;70701;44.452;18.652;2023-11-22T10:42:26;42.03;;;22.93;;
81229;SDS011;70701;44.452;18.652;2023-11-22T10:44:56;39.40;;;23.70;;
81229;SDS011;70701;44.452;18.652;2023-11-22T10:47:24;38.43;;;22.30;;
81229;SDS011;70701;44.452;18.652;2023-11-22T10:49:52;24.90;;;16.23;;
81229;SDS011;70701;44.452;18.652;2023-11-22T10:52:18;29.83;;;18.03;;
81229;SDS011;70701;44.452;18.652;2023-11-22T10:54:44;28.10;;;19.23;;
81229;SDS011;70701;44.452;18.652;2023-11-22T10:57:16;31.27;;;20.87;;
81229;SDS011;70701;44.452;18.652;2023-11-22T10:59:49;34.67;;;22.93;;
81229;SDS011;70701;44.452;18.652;2023-11-22T11:02:21;33.30;;;18.40;;
81229;SDS011;70701;44.452;18.652;2023-11-22T11:04:51;27.17;;;14.80;;
81229;SDS011;70701;44.452;18.652;2023-11-22T11:07:24;29.90;;;16.77;;
81229;SDS011;70701;44.452;18.652;2023-11-22T11:09:56;20.50;;;12.47;;
81229;SDS011;70701;44.452;18.652;2023-11-22T11:12:23;21.50;;;13.30;;
81229;SDS011;70701;44.452;18.652;2023-11-22T11:14:49;20.17;;;11.83;;
81229;SDS011;70701;44.452;18.652;2023-11-22T11:17:19;27.30;;;19.33;;
81229;SDS011;70701;44.452;18.652;2023-11-22T11:19:46;39.00;;;20.80;;
81229;SDS011;70701;44.452;18.652;2023-11-22T11:22:11;24.27;;;16.87;;
81229;SDS011;70701;44.452;18.652;2023-11-22T11:24:39;27.07;;;19.30;;
81229;SDS011;70701;44.452;18.652;2023-11-22T11:27:06;45.10;;;28.50;;
81229;SDS011;70701;44.452;18.652;2023-11-22T11:29:33;26.37;;;21.03;;
81229;SDS011;70701;44.452;18.652;2023-11-22T11:32:09;27.47;;;18.40;;
81229;SDS011;70701;44.452;18.652;2023-11-22T11:34:49;25.13;;;16.87;;
81229;SDS011;70701;44.452;18.652;2023-11-22T11:37:15;25.13;;;16.00;;
81229;SDS011;70701;44.452;18.652;2023-11-22T11:39:43;32.67;;;20.50;;
81229;SDS011;70701;44.452;18.652;2023-11-22T11:42:09;25.80;;;18.77;;
81229;SDS011;70701;44.452;18.652;2023-11-22T11:44:36;44.20;;;22.37;;
81229;SDS011;70701;44.452;18.652;2023-11-22T11:47:09;41.17;;;25.57;;
81229;SDS011;70701;44.452;18.652;2023-11-22T11:49:39;34.63;;;22.02;;
81229;SDS011;70701;44.452;18.652;2023-11-22T11:52:04;29.23;;;19.93;;
81229;SDS011;70701;44.452;18.652;2023-11-22T11:54:30;36.40;;;24.37;;
81229;SDS011;70701;44.452;18.652;2023-11-22T11:56:59;39.63;;;25.80;;
81229;SDS011;70701;44.452;18.652;2023-11-22T11:59:26;38.57;;;21.30;;
81229;SDS011;70701;44.452;18.652;2023-11-22T12:01:54;36.37;;;22.73;;
81229;SDS011;70701;44.452;18.652;2023-11-22T12:04:23;24.50;;;15.30;;
81229;SDS011;70701;44.452;18.652;2023-11-22T12:06:49;25.90;;;15.23;;
81229;SDS011;70701;44.452;18.652;2023-11-22T12:09:22;24.40;;;14.13;;
81229;SDS011;70701;44.452;18.652;2023-11-22T12:11:49;20.95;;;14.20;;
81229;SDS011;70701;44.452;18.652;2023-11-22T12:14:16;21.67;;;15.87;;
81229;SDS011;70701;44.452;18.652;2023-11-22T12:16:43;24.17;;;15.00;;
81229;SDS011;70701;44.452;18.652;2023-11-22T12:19:20;28.23;;;20.13;;
81229;SDS011;70701;44.452;18.652;2023-11-22T12:21:47;21.23;;;14.83;;
81229;SDS011;70701;44.452;18.652;2023-11-22T12:24:14;25.90;;;17.80;;
81229;SDS011;70701;44.452;18.652;2023-11-22T12:26:44;30.70;;;18.97;;
81229;SDS011;70701;44.452;18.652;2023-11-22T12:29:13;27.47;;;18.37;;
81229;SDS011;70701;44.452;18.652;2023-11-22T12:34:18;26.60;;;16.27;;
81229;SDS011;70701;44.452;18.652;2023-11-22T12:36:45;30.40;;;17.50;;
81229;SDS011;70701;44.452;18.652;2023-11-22T12:39:15;27.87;;;17.57;;
81229;SDS011;70701;44.452;18.652;2023-11-22T12:41:47;56.03;;;28.43;;
81229;SDS011;70701;44.452;18.652;2023-11-22T12:44:13;45.10;;;26.10;;
81229;SDS011;70701;44.452;18.652;2023-11-22T12:49:18;45.17;;;28.03;;
81229;SDS011;70701;44.452;18.652;2023-11-22T12:51:53;35.17;;;21.77;;
81229;SDS011;70701;44.452;18.652;2023-11-22T12:54:20;52.80;;;35.87;;
81229;SDS011;70701;44.452;18.652;2023-11-22T12:56:50;43.13;;;28.93;;
81229;SDS011;70701;44.452;18.652;2023-11-22T12:59:16;45.27;;;28.63;;
81229;SDS011;70701;44.452;18.652;2023-11-22T13:01:44;39.37;;;27.47;;
81229;SDS011;70701;44.452;18.652;2023-11-22T13:04:11;42.13;;;28.90;;
81229;SDS011;70701;44.452;18.652;2023-11-22T13:06:39;38.77;;;26.60;;
81229;SDS011;70701;44.452;18.652;2023-11-22T13:09:04;36.50;;;23.57;;
81229;SDS011;70701;44.452;18.652;2023-11-22T13:11:31;35.73;;;24.00;;
81229;SDS011;70701;44.452;18.652;2023-11-22T13:13:57;43.90;;;29.50;;
81229;SDS011;70701;44.452;18.652;2023-11-22T13:16:23;23.47;;;15.23;;
81229;SDS011;70701;44.452;18.652;2023-11-22T13:18:49;36.50;;;25.80;;
81229;SDS011;70701;44.452;18.652;2023-11-22T13:21:15;23.70;;;15.80;;
81229;SDS011;70701;44.452;18.652;2023-11-22T13:23:40;21.40;;;14.23;;
81229;SDS011;70701;44.452;18.652;2023-11-22T13:26:06;28.20;;;18.37;;
81229;SDS011;70701;44.452;18.652;2023-11-22T13:28:34;23.30;;;14.90;;
81229;SDS011;70701;44.452;18.652;2023-11-22T13:31:00;24.37;;;17.80;;
81229;SDS011;70701;44.452;18.652;2023-11-22T13:33:26;25.33;;;15.67;;
81229;SDS011;70701;44.452;18.652;2023-11-22T13:35:53;44.73;;;34.83;;
81229;SDS011;70701;44.452;18.652;2023-11-22T13:38:19;59.67;;;42.33;;
81229;SDS011;70701;44.452;18.652;2023-11-22T13:40:44;36.70;;;24.00;;
81229;SDS011;70701;44.452;18.652;2023-11-22T13:43:11;50.77;;;29.93;;
81229;SDS011;70701;44.452;18.652;2023-11-22T13:45:40;53.23;;;33.87;;
81229;SDS011;70701;44.452;18.652;2023-11-22T13:48:06;75.23;;;43.50;;
81229;SDS011;70701;44.452;18.652;2023-11-22T13:50:35;94.57;;;49.03;;
81229;SDS011;70701;44.452;18.652;2023-11-22T13:53:01;52.23;;;28.17;;
81229;SDS011;70701;44.452;18.652;2023-11-22T13:55:27;65.30;;;35.70;;
81229;SDS011;70701;44.452;18.652;2023-11-22T13:57:56;77.93;;;40.20;;
81229;SDS011;70701;44.452;18.652;2023-11-22T14:00:24;86.43;;;42.53;;
81229;SDS011;70701;44.452;18.652;2023-11-22T14:02:54;89.73;;;44.50;;
81229;SDS011;70701;44.452;18.652;2023-11-22T14:05:25;70.07;;;40.57;;
81229;SDS011;70701;44.452;18.652;2023-11-22T14:07:54;63.97;;;36.13;;
81229;SDS011;70701;44.452;18.652;2023-11-22T14:10:20;60.97;;;36.17;;
81229;SDS011;70701;44.452;18.652;2023-11-22T14:12:47;53.47;;;32.03;;
81229;SDS011;70701;44.452;18.652;2023-11-22T14:15:14;46.17;;;30.33;;
81229;SDS011;70701;44.452;18.652;2023-11-22T14:17:40;51.07;;;29.70;;
81229;SDS011;70701;44.452;18.652;2023-11-22T14:20:07;47.93;;;32.53;;